Time;durP1;ratioP1;P1;durP2;ratioP2;P2;SDS_P1;SDS_P2;PMS_P1;PMS_P2;Temp;Humidity;BMP_temperature;BMP_pressure;BME280_temperature;BME280_humidity;BME280_pressure;Samples;Min_cycle;Max_cycle;Signal;HPM_P1;HPM_P2
2022/03/11 00:00:53;;;;;;;96.43;14.23;;;;;;;;;;5055476;28;20197;-63
2022/03/11 00:03:20;;;;;;;100.60;14.30;;;;;;;;;;5053886;28;20224;-63
2022/03/11 00:05:46;;;;;;;84.80;12.80;;;;;;;;;;5051999;28;20306;-63
2022/03/11 00:08:13;;;;;;;63.67;9.90;;;;;;;;;;5053314;28;20240;-63
2022/03/11 00:10:39;;;;;;;100.10;14.27;;;;;;;;;;5054892;28;20197;-63
2022/03/11 00:13:05;;;;;;;49.60;8.57;;;;;;;;;;5053684;28;20213;-63
2022/03/11 00:15:31;;;;;;;62.03;10.33;;;;;;;;;;5057551;28;20200;-63
2022/03/11 00:17:57;;;;;;;93.03;13.73;;;;;;;;;;5038840;28;20784;-64
2022/03/11 00:20:24;;;;;;;94.30;13.90;;;;;;;;;;5052416;28;20183;-63
2022/03/11 00:22:51;;;;;;;89.70;13.47;;;;;;;;;;5056426;28;20182;-63
2022/03/11 00:25:17;;;;;;;64.53;10.00;;;;;;;;;;5053867;28;20202;-63
2022/03/11 00:27:43;;;;;;;94.87;13.57;;;;;;;;;;5034052;28;20241;-63
2022/03/11 00:30:10;;;;;;;73.23;11.33;;;;;;;;;;5052614;28;20183;-63
2022/03/11 00:32:36;;;;;;;84.60;12.40;;;;;;;;;;5058339;28;20214;-63
2022/03/11 00:35:02;;;;;;;57.13;9.40;;;;;;;;;;5057679;28;20236;-63
2022/03/11 00:37:28;;;;;;;82.70;12.20;;;;;;;;;;5054153;28;20207;-63
2022/03/11 00:39:54;;;;;;;67.77;11.03;;;;;;;;;;5055163;28;20186;-63
2022/03/11 00:42:20;;;;;;;59.57;10.13;;;;;;;;;;5053184;28;20183;-63
2022/03/11 00:44:46;;;;;;;107.53;15.07;;;;;;;;;;5055575;28;20188;-63
2022/03/11 00:47:12;;;;;;;59.43;9.93;;;;;;;;;;5055307;28;20263;-63
2022/03/11 00:49:38;;;;;;;85.60;12.20;;;;;;;;;;5055130;28;20729;-63
2022/03/11 00:52:04;;;;;;;84.80;12.83;;;;;;;;;;5052578;28;20237;-63
2022/03/11 00:54:30;;;;;;;77.70;11.90;;;;;;;;;;5051993;28;20282;-63
2022/03/11 00:56:56;;;;;;;73.23;11.53;;;;;;;;;;5035412;28;20195;-63
2022/03/11 00:59:22;;;;;;;85.43;12.87;;;;;;;;;;5056346;28;20183;-63
2022/03/11 01:01:48;;;;;;;79.50;11.93;;;;;;;;;;5059690;28;20248;-63
2022/03/11 01:04:14;;;;;;;120.13;16.43;;;;;;;;;;5047984;28;20195;-63
2022/03/11 01:06:40;;;;;;;92.93;13.93;;;;;;;;;;5053698;28;20215;-63
2022/03/11 01:09:06;;;;;;;67.90;10.43;;;;;;;;;;5053854;28;20214;-63
2022/03/11 01:11:32;;;;;;;72.40;10.97;;;;;;;;;;5052415;28;20298;-64
2022/03/11 01:13:58;;;;;;;50.00;8.57;;;;;;;;;;5054980;28;20645;-63
2022/03/11 01:16:24;;;;;;;61.13;9.93;;;;;;;;;;5061065;28;20187;-63
2022/03/11 01:18:50;;;;;;;107.27;15.37;;;;;;;;;;5052627;28;20302;-63
2022/03/11 01:21:17;;;;;;;49.07;8.30;;;;;;;;;;5050159;28;20197;-63
2022/03/11 01:23:43;;;;;;;103.53;14.63;;;;;;;;;;5054234;28;20179;-63
2022/03/11 01:26:10;;;;;;;85.67;12.57;;;;;;;;;;5056249;28;20191;-63
2022/03/11 01:28:39;;;;;;;56.30;9.33;;;;;;;;;;5034587;28;20237;-63
2022/03/11 01:31:05;;;;;;;83.23;12.17;;;;;;;;;;5053807;28;20195;-63
2022/03/11 01:33:31;;;;;;;74.60;11.40;;;;;;;;;;5052496;28;20304;-63
2022/03/11 01:35:56;;;;;;;64.00;10.20;;;;;;;;;;5048489;28;20608;-63
2022/03/11 01:38:22;;;;;;;78.80;11.67;;;;;;;;;;5053842;28;20211;-63
2022/03/11 01:40:48;;;;;;;161.67;20.83;;;;;;;;;;5050669;28;20548;-63
2022/03/11 01:43:18;;;;;;;83.07;12.70;;;;;;;;;;5051336;28;20203;-63
2022/03/11 01:45:44;;;;;;;99.17;14.37;;;;;;;;;;5043973;28;20233;-63
2022/03/11 01:48:11;;;;;;;43.60;7.23;;;;;;;;;;5050072;28;20214;-63
2022/03/11 01:50:40;;;;;;;72.93;11.30;;;;;;;;;;5049845;28;20600;-64
2022/03/11 01:53:10;;;;;;;91.60;13.03;;;;;;;;;;5051999;28;20305;-63
2022/03/11 01:55:37;;;;;;;74.97;11.30;;;;;;;;;;5053201;28;20194;-63
2022/03/11 01:58:04;;;;;;;66.07;9.97;;;;;;;;;;5050374;28;20263;-63
2022/03/11 02:00:30;;;;;;;70.20;10.67;;;;;;;;;;5053091;28;20210;-63
2022/03/11 02:02:56;;;;;;;64.57;10.00;;;;;;;;;;5051906;28;20182;-63
2022/03/11 02:05:22;;;;;;;92.97;13.57;;;;;;;;;;5051459;28;20681;-64
2022/03/11 02:07:49;;;;;;;65.87;10.47;;;;;;;;;;5057186;28;20207;-63
2022/03/11 02:10:15;;;;;;;23.67;5.30;;;;;;;;;;5059278;28;20183;-64
2022/03/11 02:12:42;;;;;;;73.37;11.13;;;;;;;;;;5037005;28;20221;-63
2022/03/11 02:15:09;;;;;;;83.77;12.13;;;;;;;;;;5051307;28;20263;-63
2022/03/11 02:17:35;;;;;;;98.77;13.80;;;;;;;;;;5052070;28;20276;-63
2022/03/11 02:20:02;;;;;;;105.87;15.00;;;;;;;;;;5035261;28;20251;-63
2022/03/11 02:22:28;;;;;;;63.40;10.07;;;;;;;;;;5056343;28;20273;-63
2022/03/11 02:24:55;;;;;;;106.27;14.50;;;;;;;;;;5052792;28;20183;-63
2022/03/11 02:27:21;;;;;;;47.47;8.13;;;;;;;;;;5054165;28;20675;-63
2022/03/11 02:29:47;;;;;;;66.60;10.27;;;;;;;;;;5051931;28;20186;-63
2022/03/11 02:32:13;;;;;;;63.50;10.10;;;;;;;;;;5050595;28;20988;-63
2022/03/11 02:34:40;;;;;;;121.43;16.83;;;;;;;;;;5049920;28;20178;-64
2022/03/11 02:37:06;;;;;;;86.23;12.63;;;;;;;;;;5034681;28;20300;-63
2022/03/11 02:39:32;;;;;;;80.57;12.17;;;;;;;;;;5055394;28;20698;-63
2022/03/11 02:42:00;;;;;;;83.33;12.50;;;;;;;;;;5047711;28;20273;-63
2022/03/11 02:44:29;;;;;;;88.10;12.63;;;;;;;;;;5047681;28;20845;-63
2022/03/11 02:46:55;;;;;;;120.33;16.73;;;;;;;;;;5052198;28;20344;-64
2022/03/11 02:49:21;;;;;;;47.17;8.13;;;;;;;;;;5048555;28;20191;-63
2022/03/11 02:51:47;;;;;;;94.03;13.33;;;;;;;;;;5050506;28;20252;-63
2022/03/11 02:54:13;;;;;;;44.70;8.27;;;;;;;;;;5053126;28;20211;-63
2022/03/11 02:56:39;;;;;;;118.73;16.07;;;;;;;;;;5051190;28;20183;-63
2022/03/11 02:59:04;;;;;;;84.87;12.70;;;;;;;;;;5054053;28;20698;-63
2022/03/11 03:01:32;;;;;;;76.93;10.93;;;;;;;;;;5051441;28;20183;-63
2022/03/11 03:03:57;;;;;;;84.23;12.20;;;;;;;;;;5046566;28;20248;-63
2022/03/11 03:06:23;;;;;;;49.70;8.33;;;;;;;;;;5046369;28;20576;-63
2022/03/11 03:08:49;;;;;;;109.30;15.03;;;;;;;;;;5052539;28;20207;-63
2022/03/11 03:11:15;;;;;;;71.73;10.93;;;;;;;;;;5052450;28;20538;-63
2022/03/11 03:13:41;;;;;;;109.57;15.07;;;;;;;;;;5051137;28;20222;-63
2022/03/11 03:16:07;;;;;;;72.43;10.93;;;;;;;;;;5051701;28;20190;-63
2022/03/11 03:18:33;;;;;;;60.30;9.53;;;;;;;;;;5052054;28;20199;-64
2022/03/11 03:20:59;;;;;;;108.87;15.17;;;;;;;;;;5049208;28;20190;-63
2022/03/11 03:23:26;;;;;;;108.97;15.20;;;;;;;;;;5052217;28;20545;-63
2022/03/11 03:25:52;;;;;;;110.07;14.90;;;;;;;;;;5032493;28;20194;-63
2022/03/11 03:28:18;;;;;;;113.77;15.40;;;;;;;;;;5047877;28;20211;-63
2022/03/11 03:30:44;;;;;;;79.70;11.67;;;;;;;;;;5055787;28;20198;-63
2022/03/11 03:33:09;;;;;;;60.80;10.00;;;;;;;;;;5052657;28;20263;-63
2022/03/11 03:35:35;;;;;;;59.37;9.43;;;;;;;;;;5044496;28;20183;-63
2022/03/11 03:38:01;;;;;;;47.10;8.10;;;;;;;;;;5054007;28;20218;-63
2022/03/11 03:40:27;;;;;;;48.07;8.47;;;;;;;;;;5055251;28;20251;-64
2022/03/11 03:42:53;;;;;;;116.07;16.07;;;;;;;;;;5047424;28;20199;-63
2022/03/11 03:45:19;;;;;;;76.50;11.67;;;;;;;;;;5037200;28;20183;-63
2022/03/11 03:47:45;;;;;;;92.77;12.87;;;;;;;;;;5058670;28;20211;-63
2022/03/11 03:50:11;;;;;;;54.13;8.77;;;;;;;;;;5038257;28;20248;-63
2022/03/11 03:52:37;;;;;;;82.63;12.30;;;;;;;;;;5057702;28;20285;-63
2022/03/11 03:55:03;;;;;;;69.40;11.00;;;;;;;;;;5056500;28;20400;-63
2022/03/11 03:57:29;;;;;;;69.13;10.87;;;;;;;;;;5050408;28;20250;-63
2022/03/11 03:59:55;;;;;;;60.13;9.70;;;;;;;;;;5053643;28;20596;-63
2022/03/11 04:02:21;;;;;;;64.73;10.10;;;;;;;;;;5055499;28;20615;-63
2022/03/11 04:04:47;;;;;;;105.40;14.40;;;;;;;;;;5050180;28;20847;-63
2022/03/11 04:07:13;;;;;;;37.70;6.90;;;;;;;;;;5057835;28;20226;-64
2022/03/11 04:09:39;;;;;;;98.07;13.67;;;;;;;;;;5058375;28;20305;-63
2022/03/11 04:12:06;;;;;;;63.53;10.10;;;;;;;;;;5036186;28;20639;-63
2022/03/11 04:14:32;;;;;;;68.87;10.77;;;;;;;;;;5054161;28;20187;-63
2022/03/11 04:16:57;;;;;;;51.17;8.73;;;;;;;;;;5055452;28;20183;-63
2022/03/11 04:19:23;;;;;;;59.83;8.97;;;;;;;;;;5059917;28;20183;-63
2022/03/11 04:21:49;;;;;;;76.53;11.80;;;;;;;;;;5034325;28;20332;-63
2022/03/11 04:24:17;;;;;;;80.37;11.77;;;;;;;;;;5053845;28;20183;-63
2022/03/11 04:26:44;;;;;;;91.13;13.27;;;;;;;;;;5047619;28;20175;-63
2022/03/11 04:29:10;;;;;;;64.60;10.37;;;;;;;;;;5056834;28;20180;-63
2022/03/11 04:31:36;;;;;;;65.97;10.50;;;;;;;;;;5056435;28;20270;-63
2022/03/11 04:34:04;;;;;;;79.70;12.13;;;;;;;;;;5053511;28;20186;-63
2022/03/11 04:36:33;;;;;;;56.13;8.93;;;;;;;;;;5035408;28;22198;-63
2022/03/11 04:38:59;;;;;;;74.33;10.70;;;;;;;;;;5053455;28;20628;-63
2022/03/11 04:41:25;;;;;;;73.40;11.07;;;;;;;;;;5050547;28;20191;-63
2022/03/11 04:43:51;;;;;;;97.33;13.60;;;;;;;;;;5052336;28;20281;-63
2022/03/11 04:46:17;;;;;;;75.17;11.37;;;;;;;;;;5051824;28;20472;-63
2022/03/11 04:48:46;;;;;;;91.93;13.57;;;;;;;;;;5049621;28;20233;-63
2022/03/11 04:51:13;;;;;;;61.80;9.73;;;;;;;;;;5049151;28;20201;-63
2022/03/11 04:53:39;;;;;;;88.77;12.83;;;;;;;;;;5033654;28;20198;-63
2022/03/11 04:56:05;;;;;;;66.87;10.77;;;;;;;;;;5049045;28;20187;-63
2022/03/11 04:58:31;;;;;;;73.20;11.00;;;;;;;;;;5053736;28;20790;-63
2022/03/11 05:00:57;;;;;;;59.87;9.33;;;;;;;;;;5051628;28;20203;-63
2022/03/11 05:03:23;;;;;;;110.43;15.77;;;;;;;;;;5056183;28;20194;-63
2022/03/11 05:05:49;;;;;;;107.20;14.63;;;;;;;;;;5051192;28;20639;-63
2022/03/11 05:08:14;;;;;;;87.20;12.53;;;;;;;;;;5054327;28;20289;-63
2022/03/11 05:10:40;;;;;;;154.93;19.80;;;;;;;;;;5051409;28;20251;-63
2022/03/11 05:13:06;;;;;;;76.10;11.50;;;;;;;;;;5047840;28;20579;-63
2022/03/11 05:15:34;;;;;;;62.93;9.70;;;;;;;;;;5051728;28;20191;-63
2022/03/11 05:18:00;;;;;;;91.47;12.93;;;;;;;;;;5050695;28;20389;-63
2022/03/11 05:20:26;;;;;;;74.27;11.10;;;;;;;;;;5050178;28;20248;-63
2022/03/11 05:22:52;;;;;;;97.40;14.23;;;;;;;;;;5053263;28;20187;-63
2022/03/11 05:25:18;;;;;;;73.73;11.03;;;;;;;;;;5052281;28;20190;-63
2022/03/11 05:27:44;;;;;;;78.27;11.90;;;;;;;;;;5034973;28;20688;-63
2022/03/11 05:30:10;;;;;;;109.40;14.73;;;;;;;;;;5052642;28;20636;-63
2022/03/11 05:32:43;;;;;;;80.63;11.83;;;;;;;;;;5047572;28;20237;-63
2022/03/11 05:35:10;;;;;;;60.63;9.53;;;;;;;;;;5052035;28;20670;-63
2022/03/11 05:37:36;;;;;;;80.67;11.80;;;;;;;;;;5051549;28;20203;-63
2022/03/11 05:40:02;;;;;;;73.43;11.20;;;;;;;;;;5053058;28;20187;-63
2022/03/11 05:42:28;;;;;;;89.57;13.07;;;;;;;;;;5046577;28;20194;-64
2022/03/11 05:44:54;;;;;;;108.63;15.13;;;;;;;;;;5052920;28;20191;-63
2022/03/11 05:47:20;;;;;;;67.37;10.30;;;;;;;;;;5051462;28;20214;-63
2022/03/11 05:49:46;;;;;;;89.43;12.47;;;;;;;;;;5036586;28;20191;-63
2022/03/11 05:52:12;;;;;;;62.43;9.73;;;;;;;;;;5051999;28;20564;-63
2022/03/11 05:54:38;;;;;;;81.83;11.87;;;;;;;;;;5050822;28;20207;-63
2022/03/11 05:57:04;;;;;;;84.60;12.37;;;;;;;;;;5046722;28;20541;-63
2022/03/11 05:59:31;;;;;;;84.83;12.23;;;;;;;;;;5052887;28;20769;-63
2022/03/11 06:01:57;;;;;;;80.17;11.90;;;;;;;;;;5049238;28;21053;-63
2022/03/11 06:04:23;;;;;;;71.40;11.07;;;;;;;;;;5047591;28;20208;-63
2022/03/11 06:06:49;;;;;;;90.80;13.30;;;;;;;;;;5054693;28;20252;-64
2022/03/11 06:09:15;;;;;;;41.13;7.23;;;;;;;;;;5055835;28;20191;-64
2022/03/11 06:11:41;;;;;;;111.27;15.43;;;;;;;;;;5050824;28;20183;-63
2022/03/11 06:14:07;;;;;;;67.90;10.27;;;;;;;;;;5052325;28;20186;-63
2022/03/11 06:16:33;;;;;;;96.83;13.47;;;;;;;;;;5053444;28;20258;-63
2022/03/11 06:18:59;;;;;;;61.30;9.63;;;;;;;;;;5058141;28;20288;-63
2022/03/11 06:21:25;;;;;;;54.30;8.93;;;;;;;;;;5052228;28;20192;-63
2022/03/11 06:23:52;;;;;;;97.27;13.63;;;;;;;;;;5056559;28;20673;-63
2022/03/11 06:26:18;;;;;;;71.03;10.37;;;;;;;;;;5054419;28;20230;-63
2022/03/11 06:28:44;;;;;;;137.17;18.13;;;;;;;;;;5044150;28;20281;-63
2022/03/11 06:31:11;;;;;;;45.90;8.23;;;;;;;;;;5053006;28;20710;-63
2022/03/11 06:33:37;;;;;;;63.07;10.00;;;;;;;;;;5055881;28;20217;-64
2022/03/11 06:36:03;;;;;;;87.93;12.77;;;;;;;;;;5047609;28;20191;-64
2022/03/11 06:38:28;;;;;;;84.57;12.30;;;;;;;;;;5053176;28;20207;-64
2022/03/11 06:40:56;;;;;;;131.27;17.23;;;;;;;;;;5046404;28;20378;-64
2022/03/11 06:43:22;;;;;;;86.77;12.17;;;;;;;;;;5033815;28;20206;-63
2022/03/11 06:45:48;;;;;;;125.80;16.63;;;;;;;;;;5040175;28;20268;-64
2022/03/11 06:48:14;;;;;;;69.23;10.97;;;;;;;;;;5045594;28;20305;-63
2022/03/11 06:50:40;;;;;;;87.97;12.87;;;;;;;;;;5051499;28;20224;-64
2022/03/11 06:53:06;;;;;;;138.33;18.50;;;;;;;;;;5045187;28;20207;-63
2022/03/11 06:55:32;;;;;;;78.80;11.37;;;;;;;;;;5031886;28;20788;-64
2022/03/11 06:57:59;;;;;;;131.03;17.30;;;;;;;;;;5031735;28;20238;-67
2022/03/11 07:00:26;;;;;;;100.50;14.33;;;;;;;;;;5047264;28;20184;-67
2022/03/11 07:02:52;;;;;;;97.07;14.73;;;;;;;;;;5048120;28;20179;-66
2022/03/11 07:05:18;;;;;;;98.40;14.80;;;;;;;;;;5022602;28;20198;-68
2022/03/11 07:07:45;;;;;;;89.47;13.97;;;;;;;;;;5049625;28;20233;-67
2022/03/11 07:10:11;;;;;;;78.30;12.90;;;;;;;;;;5052898;28;20697;-68
2022/03/11 07:12:37;;;;;;;143.97;20.03;;;;;;;;;;5037578;28;20222;-64
2022/03/11 07:15:05;;;;;;;168.77;24.03;;;;;;;;;;5018975;28;20193;-64
2022/03/11 07:17:31;;;;;;;76.63;12.73;;;;;;;;;;5049913;28;20183;-64
2022/03/11 07:19:57;;;;;;;40.80;8.80;;;;;;;;;;5060216;28;20177;-65
2022/03/11 07:22:23;;;;;;;102.63;15.50;;;;;;;;;;5056441;28;20334;-67
2022/03/11 07:24:49;;;;;;;158.80;22.30;;;;;;;;;;5050544;28;20256;-66
2022/03/11 07:27:15;;;;;;;90.40;13.83;;;;;;;;;;5038838;28;20247;-67
2022/03/11 07:29:41;;;;;;;133.57;18.17;;;;;;;;;;5047950;28;20195;-68
2022/03/11 07:32:08;;;;;;;82.73;12.10;;;;;;;;;;5046459;28;20620;-68
2022/03/11 07:34:34;;;;;;;84.13;13.83;;;;;;;;;;5051142;28;20609;-67
2022/03/11 07:37:00;;;;;;;87.90;13.73;;;;;;;;;;5034198;28;20708;-66
2022/03/11 07:39:26;;;;;;;98.20;14.73;;;;;;;;;;5049488;28;20186;-66
2022/03/11 07:41:52;;;;;;;127.82;19.55;;;;;;;;;;5041514;28;20449;-66
2022/03/11 07:44:18;;;;;;;50.67;10.23;;;;;;;;;;5050143;28;20271;-64
2022/03/11 07:46:45;;;;;;;110.10;17.03;;;;;;;;;;5048271;28;20191;-66
2022/03/11 07:49:11;;;;;;;69.33;11.50;;;;;;;;;;5047998;28;20183;-65
2022/03/11 07:51:37;;;;;;;88.03;13.47;;;;;;;;;;5051808;28;20221;-68
2022/03/11 07:54:03;;;;;;;83.87;12.67;;;;;;;;;;5048833;28;20207;-68
2022/03/11 07:56:29;;;;;;;76.97;12.17;;;;;;;;;;5048186;28;20205;-67
2022/03/11 07:58:56;;;;;;;150.90;20.00;;;;;;;;;;5038922;28;21793;-67
2022/03/11 08:01:22;;;;;;;48.67;9.23;;;;;;;;;;5049780;28;20197;-66
2022/03/11 08:03:48;;;;;;;94.03;14.37;;;;;;;;;;5060955;28;20266;-67
2022/03/11 08:06:15;;;;;;;50.80;9.97;;;;;;;;;;5062579;28;20244;-66
2022/03/11 08:08:42;;;;;;;72.77;12.67;;;;;;;;;;5062722;28;20199;-66
2022/03/11 08:11:08;;;;;;;76.63;12.27;;;;;;;;;;5051138;28;20812;-68
2022/03/11 08:13:34;;;;;;;81.00;12.73;;;;;;;;;;5053996;28;20202;-66
2022/03/11 08:16:00;;;;;;;58.20;11.07;;;;;;;;;;5055786;28;20297;-68
2022/03/11 08:18:26;;;;;;;55.60;10.80;;;;;;;;;;5060735;28;20202;-67
2022/03/11 08:20:52;;;;;;;96.97;14.80;;;;;;;;;;5053460;28;20203;-69
2022/03/11 08:23:18;;;;;;;112.33;16.23;;;;;;;;;;5057357;28;20260;-67
2022/03/11 08:25:45;;;;;;;102.47;15.87;;;;;;;;;;5056505;28;20186;-66
2022/03/11 08:28:13;;;;;;;47.70;9.03;;;;;;;;;;5056887;28;20290;-67
2022/03/11 08:30:39;;;;;;;84.97;13.27;;;;;;;;;;5057151;28;20186;-67
2022/03/11 08:33:05;;;;;;;68.77;11.60;;;;;;;;;;5056784;28;20207;-66
2022/03/11 08:35:31;;;;;;;55.53;10.10;;;;;;;;;;5065051;28;20229;-67
2022/03/11 08:37:57;;;;;;;82.10;12.87;;;;;;;;;;5040129;28;20195;-68
2022/03/11 08:40:24;;;;;;;55.53;9.40;;;;;;;;;;5048151;28;20194;-68
2022/03/11 08:42:51;;;;;;;72.13;11.30;;;;;;;;;;5037867;28;20201;-67
2022/03/11 08:45:20;;;;;;;50.60;9.60;;;;;;;;;;5050473;28;20186;-68
2022/03/11 08:47:46;;;;;;;104.60;15.90;;;;;;;;;;5035806;28;20368;-68
2022/03/11 08:50:12;;;;;;;110.97;16.20;;;;;;;;;;5051607;28;20195;-68
2022/03/11 08:52:38;;;;;;;104.30;15.77;;;;;;;;;;5020860;28;20214;-68
2022/03/11 08:55:04;;;;;;;84.93;13.97;;;;;;;;;;5048891;28;20632;-68
2022/03/11 08:57:30;;;;;;;77.23;12.23;;;;;;;;;;5050720;28;20704;-67
2022/03/11 08:59:56;;;;;;;70.60;11.60;;;;;;;;;;5056430;28;20183;-68
2022/03/11 09:02:23;;;;;;;54.13;9.50;;;;;;;;;;5052574;28;20217;-69
2022/03/11 09:04:49;;;;;;;122.67;17.10;;;;;;;;;;5054550;28;20545;-68
2022/03/11 09:07:15;;;;;;;62.37;11.67;;;;;;;;;;5041804;28;20241;-67
2022/03/11 09:09:41;;;;;;;153.40;20.93;;;;;;;;;;5038746;28;20270;-68
2022/03/11 09:12:08;;;;;;;124.00;18.00;;;;;;;;;;5048056;28;20222;-68
2022/03/11 09:14:34;;;;;;;62.63;10.90;;;;;;;;;;5053684;28;20558;-67
2022/03/11 09:17:00;;;;;;;48.83;9.43;;;;;;;;;;5035219;28;20675;-67
2022/03/11 09:19:26;;;;;;;66.33;11.27;;;;;;;;;;5057899;28;20187;-68
2022/03/11 09:21:52;;;;;;;79.07;12.53;;;;;;;;;;5054009;28;20501;-67
2022/03/11 09:24:18;;;;;;;66.53;11.20;;;;;;;;;;5059268;28;20194;-68
2022/03/11 09:26:49;;;;;;;86.40;13.63;;;;;;;;;;5046395;28;20300;-67
2022/03/11 09:29:15;;;;;;;110.93;16.07;;;;;;;;;;5051569;28;20202;-68
2022/03/11 09:31:41;;;;;;;91.40;14.17;;;;;;;;;;5049778;28;20213;-69
2022/03/11 09:34:07;;;;;;;56.50;10.50;;;;;;;;;;5058300;28;20337;-68
2022/03/11 09:36:33;;;;;;;127.27;18.30;;;;;;;;;;5027919;28;20245;-68
2022/03/11 09:38:59;;;;;;;80.60;13.10;;;;;;;;;;5050318;28;20358;-68
2022/03/11 09:41:27;;;;;;;94.40;13.73;;;;;;;;;;5030637;28;20215;-68
2022/03/11 09:43:55;;;;;;;114.73;16.90;;;;;;;;;;5052388;28;20527;-68
2022/03/11 09:46:21;;;;;;;56.90;10.27;;;;;;;;;;5043913;28;20192;-67
2022/03/11 09:48:47;;;;;;;144.63;20.73;;;;;;;;;;5050197;28;20218;-67
2022/03/11 09:51:15;;;;;;;64.60;11.50;;;;;;;;;;5026515;28;20188;-67
2022/03/11 09:53:42;;;;;;;107.20;15.50;;;;;;;;;;5048560;28;20329;-67
2022/03/11 09:56:08;;;;;;;193.30;26.10;;;;;;;;;;5027852;28;20636;-67
2022/03/11 09:58:35;;;;;;;52.93;10.23;;;;;;;;;;5045560;28;20637;-66
2022/03/11 10:01:01;;;;;;;83.70;14.00;;;;;;;;;;5049855;28;20855;-66
2022/03/11 10:03:29;;;;;;;86.97;14.13;;;;;;;;;;5056445;28;20187;-66
2022/03/11 10:05:56;;;;;;;95.37;15.43;;;;;;;;;;5053117;28;20195;-67
2022/03/11 10:08:31;;;;;;;101.23;15.13;;;;;;;;;;5049093;28;20207;-67
2022/03/11 10:11:16;;;;;;;97.10;14.80;;;;;;;;;;5043130;28;20191;-67
2022/03/11 10:13:42;;;;;;;141.93;20.60;;;;;;;;;;5048147;28;20649;-67
2022/03/11 10:16:18;;;;;;;109.70;16.80;;;;;;;;;;5045684;28;20243;-67
2022/03/11 10:18:55;;;;;;;116.13;16.70;;;;;;;;;;5047356;28;20199;-67
2022/03/11 10:21:21;;;;;;;93.70;14.70;;;;;;;;;;5046202;28;20653;-68
2022/03/11 10:23:50;;;;;;;102.67;15.10;;;;;;;;;;5044355;28;20282;-67
2022/03/11 10:26:35;;;;;;;97.93;15.23;;;;;;;;;;5044771;28;20279;-68
2022/03/11 10:29:01;;;;;;;124.00;17.50;;;;;;;;;;5038971;28;20268;-68
2022/03/11 10:31:37;;;;;;;106.87;16.60;;;;;;;;;;5024747;28;20205;-70
2022/03/11 10:34:15;;;;;;;90.27;13.80;;;;;;;;;;5047329;28;20218;-67
2022/03/11 10:36:47;;;;;;;110.70;17.00;;;;;;;;;;5053804;28;20184;-68
2022/03/11 10:39:18;;;;;;;88.47;14.03;;;;;;;;;;5040667;28;20240;-68
2022/03/11 10:41:45;;;;;;;96.13;14.73;;;;;;;;;;5048257;28;20543;-68
2022/03/11 10:44:12;;;;;;;67.37;11.60;;;;;;;;;;5062420;28;20272;-68
2022/03/11 10:46:39;;;;;;;94.90;14.47;;;;;;;;;;5053036;28;20274;-68
2022/03/11 10:49:05;;;;;;;98.57;14.37;;;;;;;;;;5038250;28;20206;-68
2022/03/11 10:51:32;;;;;;;53.93;10.13;;;;;;;;;;5060080;28;20217;-69
2022/03/11 10:54:00;;;;;;;73.67;12.30;;;;;;;;;;5057031;28;20202;-68
2022/03/11 10:56:52;;;;;;;109.50;16.40;;;;;;;;;;5051382;28;20219;-68
2022/03/11 10:59:21;;;;;;;119.07;17.63;;;;;;;;;;5046002;28;20205;-69
2022/03/11 11:01:47;;;;;;;105.70;16.20;;;;;;;;;;5054824;28;20201;-68
2022/03/11 11:04:14;;;;;;;119.50;17.53;;;;;;;;;;5039623;28;20186;-69
2022/03/11 11:06:40;;;;;;;121.50;18.17;;;;;;;;;;5047379;28;20187;-69
2022/03/11 11:09:07;;;;;;;80.03;13.40;;;;;;;;;;5034954;28;20203;-71
2022/03/11 11:11:34;;;;;;;113.40;16.80;;;;;;;;;;5047148;28;20194;-70
2022/03/11 11:14:04;;;;;;;91.80;14.93;;;;;;;;;;5027738;28;20255;-71
2022/03/11 11:16:31;;;;;;;113.83;16.50;;;;;;;;;;5034666;28;20186;-70
2022/03/11 11:18:57;;;;;;;98.03;15.67;;;;;;;;;;5046066;28;20195;-71
2022/03/11 11:21:24;;;;;;;141.13;20.87;;;;;;;;;;5036777;28;20195;-70
2022/03/11 11:23:59;;;;;;;108.73;16.83;;;;;;;;;;5046998;28;20191;-69
2022/03/11 11:26:26;;;;;;;124.57;17.40;;;;;;;;;;5051065;28;20191;-69
2022/03/11 11:28:53;;;;;;;109.03;15.83;;;;;;;;;;5047920;28;20319;-68
2022/03/11 11:31:20;;;;;;;41.53;8.33;;;;;;;;;;5026594;28;20210;-69
2022/03/11 11:33:47;;;;;;;113.83;16.83;;;;;;;;;;5046299;28;20226;-69
2022/03/11 11:36:13;;;;;;;94.83;14.57;;;;;;;;;;5048301;28;20274;-69
2022/03/11 11:38:42;;;;;;;184.57;25.70;;;;;;;;;;5038863;28;20225;-68
2022/03/11 11:41:23;;;;;;;124.13;18.40;;;;;;;;;;5044066;28;20183;-68
2022/03/11 11:44:00;;;;;;;124.80;17.97;;;;;;;;;;5046911;28;20237;-68
2022/03/11 11:46:28;;;;;;;124.77;18.63;;;;;;;;;;5045578;28;20194;-68
2022/03/11 11:48:53;;;;;;;150.73;21.37;;;;;;;;;;5035721;28;20301;-68
2022/03/11 11:51:21;;;;;;;82.23;13.70;;;;;;;;;;5048450;28;20196;-68
2022/03/11 11:53:52;;;;;;;73.13;11.97;;;;;;;;;;5032652;28;20253;-67
2022/03/11 11:56:34;;;;;;;117.53;17.80;;;;;;;;;;5042155;28;20818;-70
2022/03/11 11:59:02;;;;;;;102.57;15.50;;;;;;;;;;5029029;28;20282;-69
2022/03/11 12:01:47;;;;;;;75.33;12.43;;;;;;;;;;5050999;28;20184;-68
2022/03/11 12:04:22;;;;;;;65.50;11.80;;;;;;;;;;5051682;28;20337;-68
2022/03/11 12:06:57;;;;;;;147.87;20.53;;;;;;;;;;5054311;28;20221;-68
2022/03/11 12:09:53;;;;;;;59.07;10.67;;;;;;;;;;5050435;28;20770;-68
2022/03/11 12:12:30;;;;;;;63.03;11.50;;;;;;;;;;5046688;28;20207;-68
2022/03/11 12:17:40;;;;;;;88.30;13.43;;;;;;;;;;5053523;28;20266;-68
2022/03/11 12:20:26;;;;;;;76.43;12.90;;;;;;;;;;5057510;28;20183;-67
2022/03/11 12:23:13;;;;;;;76.13;12.90;;;;;;;;;;5057206;28;20684;-65
2022/03/11 12:25:40;;;;;;;112.37;17.67;;;;;;;;;;5049793;28;20191;-67
2022/03/11 12:28:08;;;;;;;54.10;11.30;;;;;;;;;;5047873;28;20207;-66
2022/03/11 12:30:35;;;;;;;112.80;17.80;;;;;;;;;;5048559;28;20260;-66
2022/03/11 12:33:03;;;;;;;115.13;18.13;;;;;;;;;;5053546;28;20206;-66
2022/03/11 12:35:29;;;;;;;82.53;20.63;;;;;;;;;;5044709;28;20338;-66
2022/03/11 12:37:55;;;;;;;83.17;19.63;;;;;;;;;;5060312;28;20384;-66
2022/03/11 12:40:23;;;;;;;124.37;21.23;;;;;;;;;;5053382;28;20248;-67
2022/03/11 12:42:49;;;;;;;129.93;23.30;;;;;;;;;;5048465;28;20187;-65
2022/03/11 12:45:35;;;;;;;76.80;15.13;;;;;;;;;;5038161;28;20277;-66
2022/03/11 12:48:01;;;;;;;74.57;15.17;;;;;;;;;;5030878;28;20207;-67
2022/03/11 12:50:27;;;;;;;87.13;17.20;;;;;;;;;;5052051;28;20187;-65
2022/03/11 12:52:58;;;;;;;174.57;29.53;;;;;;;;;;5031097;28;21617;-68
2022/03/11 12:55:30;;;;;;;80.13;15.23;;;;;;;;;;5050586;28;20210;-68
2022/03/11 12:57:57;;;;;;;94.37;17.13;;;;;;;;;;5032567;28;20696;-68
2022/03/11 13:00:24;;;;;;;116.57;19.73;;;;;;;;;;5032536;28;20179;-66
2022/03/11 13:02:51;;;;;;;146.60;21.17;;;;;;;;;;5045866;28;21091;-67
2022/03/11 13:05:21;;;;;;;146.17;22.90;;;;;;;;;;5051063;28;20186;-65
2022/03/11 13:07:48;;;;;;;172.47;33.47;;;;;;;;;;5046559;28;20247;-67
2022/03/11 13:10:18;;;;;;;152.57;29.97;;;;;;;;;;5032959;28;20190;-67
2022/03/11 13:12:45;;;;;;;170.50;34.07;;;;;;;;;;5034162;28;20226;-67
2022/03/11 13:15:13;;;;;;;107.03;21.00;;;;;;;;;;5046474;28;20179;-67
2022/03/11 13:17:46;;;;;;;150.03;33.93;;;;;;;;;;5053023;28;20221;-66
2022/03/11 13:20:27;;;;;;;88.27;15.43;;;;;;;;;;5057824;28;20187;-66
2022/03/11 13:22:53;;;;;;;123.73;21.03;;;;;;;;;;5048627;28;20182;-66
2022/03/11 13:25:25;;;;;;;94.97;17.97;;;;;;;;;;5058152;28;20229;-66
2022/03/11 13:27:51;;;;;;;181.73;32.57;;;;;;;;;;5030515;28;20199;-66
2022/03/11 13:30:28;;;;;;;58.43;11.63;;;;;;;;;;5061317;28;20194;-66
2022/03/11 13:32:54;;;;;;;103.83;16.00;;;;;;;;;;5050337;28;20203;-66
2022/03/11 13:35:32;;;;;;;64.50;11.40;;;;;;;;;;5044254;28;20202;-67
2022/03/11 13:37:58;;;;;;;99.23;17.73;;;;;;;;;;5037451;28;20785;-66
2022/03/11 13:40:24;;;;;;;124.23;22.77;;;;;;;;;;5042633;28;20199;-67
2022/03/11 13:42:59;;;;;;;102.40;18.60;;;;;;;;;;5040981;28;20187;-67
2022/03/11 13:45:28;;;;;;;72.15;15.85;;;;;;;;;;5053272;28;20247;-68
2022/03/11 13:48:03;;;;;;;176.35;31.75;;;;;;;;;;5043994;28;20219;-66
2022/03/11 13:50:31;;;;;;;87.47;19.83;;;;;;;;;;5041348;28;20547;-66
2022/03/11 13:52:58;;;;;;;85.68;13.43;;;;;;;;;;5052643;28;20210;-65
2022/03/11 13:55:37;;;;;;;105.63;16.48;;;;;;;;;;5038220;28;20612;-65
2022/03/11 13:58:13;;;;;;;86.85;13.98;;;;;;;;;;5049103;28;21013;-66
2022/03/11 14:00:39;;;;;;;52.60;10.10;;;;;;;;;;5047140;28;20676;-67
2022/03/11 14:03:12;;;;;;;71.25;13.10;;;;;;;;;;5042431;28;20189;-67
2022/03/11 14:05:42;;;;;;;97.22;16.58;;;;;;;;;;5049303;28;20326;-65
2022/03/11 14:08:08;;;;;;;48.38;9.82;;;;;;;;;;5053857;28;20946;-66
2022/03/11 14:10:38;;;;;;;67.82;12.52;;;;;;;;;;5038670;28;20186;-67
2022/03/11 14:13:08;;;;;;;42.25;9.10;;;;;;;;;;5047916;28;20218;-68
2022/03/11 14:15:35;;;;;;;48.90;9.48;;;;;;;;;;5054119;28;20207;-68
2022/03/11 14:18:02;;;;;;;94.07;16.15;;;;;;;;;;5030910;28;20197;-67
2022/03/11 14:20:29;;;;;;;137.25;21.95;;;;;;;;;;5047641;28;20198;-67